sensor_id;sensor_type;location;lat;lon;timestamp;P1;durP1;ratioP1;P2;durP2;ratioP2
9117;SDS011;4594;50.994;7.126;2023-06-14T00:01:45;4.80;;;4.37;;
9117;SDS011;4594;50.994;7.126;2023-06-14T00:04:11;4.63;;;4.10;;
9117;SDS011;4594;50.994;7.126;2023-06-14T00:06:37;4.67;;;4.13;;
9117;SDS011;4594;50.994;7.126;2023-06-14T00:09:04;6.87;;;3.80;;
9117;SDS011;4594;50.994;7.126;2023-06-14T00:11:33;5.07;;;3.90;;
9117;SDS011;4594;50.994;7.126;2023-06-14T00:13:59;8.10;;;4.00;;
9117;SDS011;4594;50.994;7.126;2023-06-14T00:16:24;6.53;;;4.33;;
9117;SDS011;4594;50.994;7.126;2023-06-14T00:18:50;4.13;;;3.73;;
9117;SDS011;4594;50.994;7.126;2023-06-14T00:21:19;6.03;;;3.70;;
9117;SDS011;4594;50.994;7.126;2023-06-14T00:23:45;4.73;;;3.90;;
9117;SDS011;4594;50.994;7.126;2023-06-14T00:26:11;7.27;;;4.17;;
9117;SDS011;4594;50.994;7.126;2023-06-14T00:28:36;9.33;;;3.93;;
9117;SDS011;4594;50.994;7.126;2023-06-14T00:31:02;7.33;;;4.60;;
9117;SDS011;4594;50.994;7.126;2023-06-14T00:33:28;5.30;;;3.90;;
9117;SDS011;4594;50.994;7.126;2023-06-14T00:35:53;4.27;;;3.90;;
9117;SDS011;4594;50.994;7.126;2023-06-14T00:38:19;4.50;;;4.10;;
9117;SDS011;4594;50.994;7.126;2023-06-14T00:40:46;4.37;;;3.97;;
9117;SDS011;4594;50.994;7.126;2023-06-14T00:43:12;3.77;;;3.57;;
9117;SDS011;4594;50.994;7.126;2023-06-14T00:45:37;8.73;;;4.10;;
9117;SDS011;4594;50.994;7.126;2023-06-14T00:48:03;4.17;;;3.70;;
9117;SDS011;4594;50.994;7.126;2023-06-14T00:50:32;6.70;;;4.07;;
9117;SDS011;4594;50.994;7.126;2023-06-14T00:52:58;3.97;;;3.67;;
9117;SDS011;4594;50.994;7.126;2023-06-14T00:55:26;4.60;;;3.83;;
9117;SDS011;4594;50.994;7.126;2023-06-14T00:57:53;4.13;;;3.73;;
9117;SDS011;4594;50.994;7.126;2023-06-14T01:00:20;5.17;;;3.87;;
9117;SDS011;4594;50.994;7.126;2023-06-14T01:02:46;4.53;;;4.07;;
9117;SDS011;4594;50.994;7.126;2023-06-14T01:05:12;5.80;;;3.93;;
9117;SDS011;4594;50.994;7.126;2023-06-14T01:08:03;5.07;;;3.90;;
9117;SDS011;4594;50.994;7.126;2023-06-14T01:10:47;3.70;;;3.40;;
9117;SDS011;4594;50.994;7.126;2023-06-14T01:16:01;4.87;;;4.13;;
9117;SDS011;4594;50.994;7.126;2023-06-14T01:18:28;4.33;;;3.93;;
9117;SDS011;4594;50.994;7.126;2023-06-14T01:20:54;4.47;;;3.93;;
9117;SDS011;4594;50.994;7.126;2023-06-14T01:23:22;6.03;;;4.03;;
9117;SDS011;4594;50.994;7.126;2023-06-14T01:25:49;5.10;;;3.97;;
9117;SDS011;4594;50.994;7.126;2023-06-14T01:28:19;4.40;;;4.00;;
9117;SDS011;4594;50.994;7.126;2023-06-14T01:30:48;4.03;;;3.73;;
9117;SDS011;4594;50.994;7.126;2023-06-14T01:33:22;4.50;;;4.17;;
9117;SDS011;4594;50.994;7.126;2023-06-14T01:35:52;3.73;;;3.27;;
9117;SDS011;4594;50.994;7.126;2023-06-14T01:38:21;4.70;;;3.70;;
9117;SDS011;4594;50.994;7.126;2023-06-14T01:40:50;5.43;;;3.70;;
9117;SDS011;4594;50.994;7.126;2023-06-14T01:43:20;4.87;;;3.60;;
9117;SDS011;4594;50.994;7.126;2023-06-14T01:45:48;3.77;;;3.47;;
9117;SDS011;4594;50.994;7.126;2023-06-14T01:48:16;4.67;;;3.93;;
9117;SDS011;4594;50.994;7.126;2023-06-14T01:50:42;15.43;;;3.87;;
9117;SDS011;4594;50.994;7.126;2023-06-14T01:53:09;3.90;;;3.20;;
9117;SDS011;4594;50.994;7.126;2023-06-14T01:55:35;5.27;;;3.43;;
9117;SDS011;4594;50.994;7.126;2023-06-14T01:58:08;4.17;;;3.80;;
9117;SDS011;4594;50.994;7.126;2023-06-14T02:00:35;4.17;;;3.77;;
9117;SDS011;4594;50.994;7.126;2023-06-14T02:03:01;3.93;;;3.70;;
9117;SDS011;4594;50.994;7.126;2023-06-14T02:05:29;4.90;;;3.33;;
9117;SDS011;4594;50.994;7.126;2023-06-14T02:07:55;4.23;;;3.83;;
9117;SDS011;4594;50.994;7.126;2023-06-14T02:10:21;4.00;;;3.50;;
9117;SDS011;4594;50.994;7.126;2023-06-14T02:12:47;4.77;;;3.63;;
9117;SDS011;4594;50.994;7.126;2023-06-14T02:15:12;5.07;;;3.63;;
9117;SDS011;4594;50.994;7.126;2023-06-14T02:17:42;3.97;;;3.67;;
9117;SDS011;4594;50.994;7.126;2023-06-14T02:20:08;3.50;;;3.27;;
9117;SDS011;4594;50.994;7.126;2023-06-14T02:22:34;4.77;;;3.77;;
9117;SDS011;4594;50.994;7.126;2023-06-14T02:25:00;7.20;;;3.87;;
9117;SDS011;4594;50.994;7.126;2023-06-14T02:27:26;3.77;;;3.47;;
9117;SDS011;4594;50.994;7.126;2023-06-14T02:29:52;3.90;;;3.47;;
9117;SDS011;4594;50.994;7.126;2023-06-14T02:32:17;4.77;;;3.20;;
9117;SDS011;4594;50.994;7.126;2023-06-14T02:34:43;5.47;;;3.57;;
9117;SDS011;4594;50.994;7.126;2023-06-14T02:37:09;3.67;;;3.30;;
9117;SDS011;4594;50.994;7.126;2023-06-14T02:39:36;3.90;;;3.60;;
9117;SDS011;4594;50.994;7.126;2023-06-14T02:42:01;4.13;;;3.50;;
9117;SDS011;4594;50.994;7.126;2023-06-14T02:44:27;3.60;;;3.30;;
9117;SDS011;4594;50.994;7.126;2023-06-14T02:46:54;3.70;;;3.50;;
9117;SDS011;4594;50.994;7.126;2023-06-14T02:49:21;3.43;;;3.23;;
9117;SDS011;4594;50.994;7.126;2023-06-14T02:51:47;3.33;;;3.03;;
9117;SDS011;4594;50.994;7.126;2023-06-14T02:54:14;4.53;;;3.07;;
9117;SDS011;4594;50.994;7.126;2023-06-14T02:56:40;3.20;;;3.00;;
9117;SDS011;4594;50.994;7.126;2023-06-14T02:59:06;3.83;;;3.47;;
9117;SDS011;4594;50.994;7.126;2023-06-14T03:01:34;4.10;;;3.80;;
9117;SDS011;4594;50.994;7.126;2023-06-14T03:04:03;4.17;;;3.20;;
9117;SDS011;4594;50.994;7.126;2023-06-14T03:06:29;5.53;;;3.27;;
9117;SDS011;4594;50.994;7.126;2023-06-14T03:08:55;4.93;;;3.17;;
9117;SDS011;4594;50.994;7.126;2023-06-14T03:11:28;3.97;;;3.60;;
9117;SDS011;4594;50.994;7.126;2023-06-14T03:13:55;3.50;;;3.30;;
9117;SDS011;4594;50.994;7.126;2023-06-14T03:16:21;8.10;;;3.83;;
9117;SDS011;4594;50.994;7.126;2023-06-14T03:18:49;4.13;;;3.00;;
9117;SDS011;4594;50.994;7.126;2023-06-14T03:21:16;3.37;;;3.07;;
9117;SDS011;4594;50.994;7.126;2023-06-14T03:23:45;4.50;;;3.53;;
9117;SDS011;4594;50.994;7.126;2023-06-14T03:26:12;4.63;;;3.23;;
9117;SDS011;4594;50.994;7.126;2023-06-14T03:28:39;5.77;;;4.10;;
9117;SDS011;4594;50.994;7.126;2023-06-14T03:31:11;3.60;;;3.27;;
9117;SDS011;4594;50.994;7.126;2023-06-14T03:33:38;3.93;;;3.50;;
9117;SDS011;4594;50.994;7.126;2023-06-14T03:36:05;5.40;;;3.17;;
9117;SDS011;4594;50.994;7.126;2023-06-14T03:38:34;3.43;;;3.23;;
9117;SDS011;4594;50.994;7.126;2023-06-14T03:41:00;4.37;;;3.30;;
9117;SDS011;4594;50.994;7.126;2023-06-14T03:43:26;3.93;;;3.63;;
9117;SDS011;4594;50.994;7.126;2023-06-14T03:45:52;3.80;;;3.50;;
9117;SDS011;4594;50.994;7.126;2023-06-14T03:48:18;4.17;;;3.10;;
9117;SDS011;4594;50.994;7.126;2023-06-14T03:50:43;3.57;;;3.27;;
9117;SDS011;4594;50.994;7.126;2023-06-14T03:53:09;3.97;;;3.57;;
9117;SDS011;4594;50.994;7.126;2023-06-14T03:55:35;3.50;;;3.30;;
9117;SDS011;4594;50.994;7.126;2023-06-14T03:58:02;6.43;;;3.43;;
9117;SDS011;4594;50.994;7.126;2023-06-14T04:00:28;3.20;;;3.00;;
9117;SDS011;4594;50.994;7.126;2023-06-14T04:02:55;3.30;;;3.10;;
9117;SDS011;4594;50.994;7.126;2023-06-14T04:05:20;3.27;;;3.07;;
9117;SDS011;4594;50.994;7.126;2023-06-14T04:07:46;4.17;;;3.17;;
9117;SDS011;4594;50.994;7.126;2023-06-14T04:10:13;4.93;;;3.40;;
9117;SDS011;4594;50.994;7.126;2023-06-14T04:12:41;3.63;;;3.43;;
9117;SDS011;4594;50.994;7.126;2023-06-14T04:15:08;3.50;;;3.30;;
9117;SDS011;4594;50.994;7.126;2023-06-14T04:17:35;3.13;;;2.93;;
9117;SDS011;4594;50.994;7.126;2023-06-14T04:20:02;3.40;;;3.10;;
9117;SDS011;4594;50.994;7.126;2023-06-14T04:22:30;3.67;;;3.47;;
9117;SDS011;4594;50.994;7.126;2023-06-14T04:24:56;6.27;;;3.13;;
9117;SDS011;4594;50.994;7.126;2023-06-14T04:27:26;3.27;;;3.03;;
9117;SDS011;4594;50.994;7.126;2023-06-14T04:29:53;7.80;;;3.60;;
9117;SDS011;4594;50.994;7.126;2023-06-14T04:32:24;3.40;;;3.10;;
9117;SDS011;4594;50.994;7.126;2023-06-14T04:34:57;3.13;;;2.90;;
9117;SDS011;4594;50.994;7.126;2023-06-14T04:37:24;3.77;;;3.47;;
9117;SDS011;4594;50.994;7.126;2023-06-14T04:39:53;3.33;;;3.13;;
9117;SDS011;4594;50.994;7.126;2023-06-14T04:42:21;4.63;;;3.50;;
9117;SDS011;4594;50.994;7.126;2023-06-14T04:44:50;4.93;;;3.40;;
9117;SDS011;4594;50.994;7.126;2023-06-14T04:47:19;3.60;;;3.40;;
9117;SDS011;4594;50.994;7.126;2023-06-14T04:49:46;5.63;;;3.33;;
9117;SDS011;4594;50.994;7.126;2023-06-14T04:52:11;3.40;;;3.10;;
9117;SDS011;4594;50.994;7.126;2023-06-14T04:54:38;4.43;;;3.70;;
9117;SDS011;4594;50.994;7.126;2023-06-14T04:57:08;4.33;;;3.30;;
9117;SDS011;4594;50.994;7.126;2023-06-14T04:59:39;3.93;;;3.13;;
9117;SDS011;4594;50.994;7.126;2023-06-14T05:02:05;3.60;;;3.30;;
9117;SDS011;4594;50.994;7.126;2023-06-14T05:04:32;3.40;;;2.97;;
9117;SDS011;4594;50.994;7.126;2023-06-14T05:06:58;10.10;;;2.90;;
9117;SDS011;4594;50.994;7.126;2023-06-14T05:09:23;3.17;;;2.97;;
9117;SDS011;4594;50.994;7.126;2023-06-14T05:11:49;3.10;;;2.90;;
9117;SDS011;4594;50.994;7.126;2023-06-14T05:14:15;3.17;;;2.93;;
9117;SDS011;4594;50.994;7.126;2023-06-14T05:16:42;2.77;;;2.67;;
9117;SDS011;4594;50.994;7.126;2023-06-14T05:19:08;3.27;;;2.97;;
9117;SDS011;4594;50.994;7.126;2023-06-14T05:21:35;2.40;;;2.30;;
9117;SDS011;4594;50.994;7.126;2023-06-14T05:24:02;3.00;;;2.80;;
9117;SDS011;4594;50.994;7.126;2023-06-14T05:26:28;5.90;;;2.63;;
9117;SDS011;4594;50.994;7.126;2023-06-14T05:28:55;5.23;;;2.77;;
9117;SDS011;4594;50.994;7.126;2023-06-14T05:31:22;2.60;;;2.40;;
9117;SDS011;4594;50.994;7.126;2023-06-14T05:33:51;6.07;;;2.57;;
9117;SDS011;4594;50.994;7.126;2023-06-14T05:36:17;2.30;;;2.20;;
9117;SDS011;4594;50.994;7.126;2023-06-14T05:38:43;3.03;;;2.50;;
9117;SDS011;4594;50.994;7.126;2023-06-14T05:41:10;7.47;;;2.77;;
9117;SDS011;4594;50.994;7.126;2023-06-14T05:43:36;2.70;;;2.50;;
9117;SDS011;4594;50.994;7.126;2023-06-14T05:46:01;2.50;;;2.40;;
9117;SDS011;4594;50.994;7.126;2023-06-14T05:48:28;3.10;;;2.40;;
9117;SDS011;4594;50.994;7.126;2023-06-14T05:50:55;2.40;;;2.20;;
9117;SDS011;4594;50.994;7.126;2023-06-14T05:53:21;3.63;;;2.47;;
9117;SDS011;4594;50.994;7.126;2023-06-14T05:55:46;3.33;;;2.60;;
9117;SDS011;4594;50.994;7.126;2023-06-14T05:58:12;2.60;;;2.40;;
9117;SDS011;4594;50.994;7.126;2023-06-14T06:00:38;2.63;;;2.13;;
9117;SDS011;4594;50.994;7.126;2023-06-14T06:03:04;2.07;;;1.97;;
9117;SDS011;4594;50.994;7.126;2023-06-14T06:05:33;4.93;;;2.30;;
9117;SDS011;4594;50.994;7.126;2023-06-14T06:07:58;3.40;;;2.40;;
9117;SDS011;4594;50.994;7.126;2023-06-14T06:10:25;2.50;;;2.30;;
9117;SDS011;4594;50.994;7.126;2023-06-14T06:12:51;3.37;;;2.37;;
9117;SDS011;4594;50.994;7.126;2023-06-14T06:15:19;2.33;;;2.17;;
9117;SDS011;4594;50.994;7.126;2023-06-14T06:17:45;2.30;;;2.20;;
9117;SDS011;4594;50.994;7.126;2023-06-14T06:20:11;2.40;;;2.23;;
9117;SDS011;4594;50.994;7.126;2023-06-14T06:22:37;4.50;;;1.80;;
9117;SDS011;4594;50.994;7.126;2023-06-14T06:25:04;2.33;;;2.13;;
9117;SDS011;4594;50.994;7.126;2023-06-14T06:27:31;2.60;;;1.90;;
9117;SDS011;4594;50.994;7.126;2023-06-14T06:29:58;5.27;;;2.00;;
9117;SDS011;4594;50.994;7.126;2023-06-14T06:32:23;3.07;;;1.83;;
9117;SDS011;4594;50.994;7.126;2023-06-14T06:34:49;1.90;;;1.80;;
9117;SDS011;4594;50.994;7.126;2023-06-14T06:37:16;3.30;;;1.90;;
9117;SDS011;4594;50.994;7.126;2023-06-14T06:39:42;2.20;;;2.10;;
9117;SDS011;4594;50.994;7.126;2023-06-14T06:42:08;2.83;;;1.80;;
9117;SDS011;4594;50.994;7.126;2023-06-14T06:44:34;3.37;;;2.37;;
9117;SDS011;4594;50.994;7.126;2023-06-14T06:47:00;2.17;;;2.03;;
9117;SDS011;4594;50.994;7.126;2023-06-14T06:49:25;5.17;;;1.80;;
9117;SDS011;4594;50.994;7.126;2023-06-14T06:51:59;1.60;;;1.60;;
9117;SDS011;4594;50.994;7.126;2023-06-14T06:54:27;4.33;;;2.03;;
9117;SDS011;4594;50.994;7.126;2023-06-14T06:56:53;2.53;;;2.10;;
9117;SDS011;4594;50.994;7.126;2023-06-14T06:59:18;2.07;;;1.97;;
9117;SDS011;4594;50.994;7.126;2023-06-14T07:01:44;5.33;;;1.90;;
9117;SDS011;4594;50.994;7.126;2023-06-14T07:04:10;6.37;;;1.80;;
9117;SDS011;4594;50.994;7.126;2023-06-14T07:06:37;2.07;;;1.70;;
9117;SDS011;4594;50.994;7.126;2023-06-14T07:09:03;10.53;;;2.00;;
9117;SDS011;4594;50.994;7.126;2023-06-14T07:11:31;1.93;;;1.80;;
9117;SDS011;4594;50.994;7.126;2023-06-14T07:13:57;1.60;;;1.60;;
9117;SDS011;4594;50.994;7.126;2023-06-14T07:16:23;1.47;;;1.47;;
9117;SDS011;4594;50.994;7.126;2023-06-14T07:18:48;3.57;;;1.57;;
9117;SDS011;4594;50.994;7.126;2023-06-14T07:21:14;3.17;;;1.60;;
9117;SDS011;4594;50.994;7.126;2023-06-14T07:23:40;1.40;;;1.30;;
9117;SDS011;4594;50.994;7.126;2023-06-14T07:26:05;1.30;;;1.20;;
9117;SDS011;4594;50.994;7.126;2023-06-14T07:28:31;1.47;;;1.20;;
9117;SDS011;4594;50.994;7.126;2023-06-14T07:30:57;7.87;;;1.40;;
9117;SDS011;4594;50.994;7.126;2023-06-14T07:33:22;5.50;;;1.30;;
9117;SDS011;4594;50.994;7.126;2023-06-14T07:35:48;1.73;;;0.93;;
9117;SDS011;4594;50.994;7.126;2023-06-14T07:38:14;1.20;;;1.20;;
9117;SDS011;4594;50.994;7.126;2023-06-14T07:40:40;1.10;;;1.10;;
9117;SDS011;4594;50.994;7.126;2023-06-14T07:43:06;1.10;;;1.10;;
9117;SDS011;4594;50.994;7.126;2023-06-14T07:45:31;1.00;;;1.00;;
9117;SDS011;4594;50.994;7.126;2023-06-14T07:47:57;0.90;;;0.90;;
9117;SDS011;4594;50.994;7.126;2023-06-14T07:50:23;2.40;;;1.23;;
9117;SDS011;4594;50.994;7.126;2023-06-14T07:52:48;1.10;;;1.10;;
9117;SDS011;4594;50.994;7.126;2023-06-14T07:55:14;1.07;;;1.07;;
9117;SDS011;4594;50.994;7.126;2023-06-14T07:57:40;1.00;;;1.00;;
9117;SDS011;4594;50.994;7.126;2023-06-14T08:00:08;1.30;;;1.20;;
9117;SDS011;4594;50.994;7.126;2023-06-14T08:02:36;2.77;;;0.93;;
9117;SDS011;4594;50.994;7.126;2023-06-14T08:05:02;0.90;;;0.90;;
9117;SDS011;4594;50.994;7.126;2023-06-14T08:07:27;2.10;;;1.10;;
9117;SDS011;4594;50.994;7.126;2023-06-14T08:09:53;1.63;;;1.33;;
9117;SDS011;4594;50.994;7.126;2023-06-14T08:12:19;1.23;;;1.13;;
9117;SDS011;4594;50.994;7.126;2023-06-14T08:14:44;1.07;;;1.07;;
9117;SDS011;4594;50.994;7.126;2023-06-14T08:17:10;1.10;;;1.10;;
9117;SDS011;4594;50.994;7.126;2023-06-14T08:19:36;1.10;;;1.10;;
9117;SDS011;4594;50.994;7.126;2023-06-14T08:22:01;0.87;;;0.87;;
9117;SDS011;4594;50.994;7.126;2023-06-14T08:24:28;1.73;;;1.00;;
9117;SDS011;4594;50.994;7.126;2023-06-14T08:26:54;3.30;;;1.20;;
9117;SDS011;4594;50.994;7.126;2023-06-14T08:29:21;2.27;;;1.23;;
9117;SDS011;4594;50.994;7.126;2023-06-14T08:31:47;1.33;;;1.03;;
9117;SDS011;4594;50.994;7.126;2023-06-14T08:34:13;6.90;;;1.10;;
9117;SDS011;4594;50.994;7.126;2023-06-14T08:36:39;1.30;;;1.20;;
9117;SDS011;4594;50.994;7.126;2023-06-14T08:39:04;0.90;;;0.90;;
9117;SDS011;4594;50.994;7.126;2023-06-14T08:41:30;1.83;;;1.10;;
9117;SDS011;4594;50.994;7.126;2023-06-14T08:43:57;1.20;;;1.13;;
9117;SDS011;4594;50.994;7.126;2023-06-14T08:46:25;0.97;;;0.80;;
9117;SDS011;4594;50.994;7.126;2023-06-14T08:48:52;1.73;;;1.17;;
9117;SDS011;4594;50.994;7.126;2023-06-14T08:51:24;2.07;;;0.83;;
9117;SDS011;4594;50.994;7.126;2023-06-14T08:53:58;1.03;;;1.03;;
9117;SDS011;4594;50.994;7.126;2023-06-14T08:56:26;1.93;;;1.00;;
9117;SDS011;4594;50.994;7.126;2023-06-14T08:58:54;7.57;;;1.50;;
9117;SDS011;4594;50.994;7.126;2023-06-14T09:01:22;2.77;;;1.20;;
9117;SDS011;4594;50.994;7.126;2023-06-14T09:03:49;1.10;;;1.10;;
9117;SDS011;4594;50.994;7.126;2023-06-14T09:06:16;7.13;;;1.40;;
9117;SDS011;4594;50.994;7.126;2023-06-14T09:08:44;1.17;;;1.17;;
9117;SDS011;4594;50.994;7.126;2023-06-14T09:11:13;3.30;;;1.20;;
9117;SDS011;4594;50.994;7.126;2023-06-14T09:13:44;1.53;;;1.10;;
9117;SDS011;4594;50.994;7.126;2023-06-14T09:16:14;1.00;;;1.00;;
9117;SDS011;4594;50.994;7.126;2023-06-14T09:18:44;1.47;;;1.37;;
9117;SDS011;4594;50.994;7.126;2023-06-14T09:21:13;3.13;;;1.40;;
9117;SDS011;4594;50.994;7.126;2023-06-14T09:23:41;1.33;;;0.93;;
9117;SDS011;4594;50.994;7.126;2023-06-14T09:26:18;5.97;;;1.50;;
9117;SDS011;4594;50.994;7.126;2023-06-14T09:28:45;1.00;;;1.00;;
9117;SDS011;4594;50.994;7.126;2023-06-14T09:31:21;1.13;;;1.13;;
9117;SDS011;4594;50.994;7.126;2023-06-14T09:33:48;0.90;;;0.90;;
9117;SDS011;4594;50.994;7.126;2023-06-14T09:36:20;0.63;;;0.63;;
9117;SDS011;4594;50.994;7.126;2023-06-14T09:38:55;2.53;;;0.93;;
9117;SDS011;4594;50.994;7.126;2023-06-14T09:41:33;1.83;;;0.90;;
9117;SDS011;4594;50.994;7.126;2023-06-14T09:44:07;1.20;;;1.00;;
9117;SDS011;4594;50.994;7.126;2023-06-14T09:46:34;3.20;;;0.90;;
9117;SDS011;4594;50.994;7.126;2023-06-14T09:49:01;0.70;;;0.70;;
9117;SDS011;4594;50.994;7.126;2023-06-14T09:51:29;3.10;;;1.00;;
9117;SDS011;4594;50.994;7.126;2023-06-14T09:54:01;2.47;;;1.40;;
9117;SDS011;4594;50.994;7.126;2023-06-14T09:56:33;2.30;;;0.70;;
9117;SDS011;4594;50.994;7.126;2023-06-14T09:59:03;0.73;;;0.73;;
9117;SDS011;4594;50.994;7.126;2023-06-14T10:01:32;1.00;;;1.00;;
9117;SDS011;4594;50.994;7.126;2023-06-14T10:04:04;2.47;;;0.90;;
9117;SDS011;4594;50.994;7.126;2023-06-14T10:06:31;1.10;;;1.10;;
9117;SDS011;4594;50.994;7.126;2023-06-14T10:09:02;1.47;;;0.80;;
9117;SDS011;4594;50.994;7.126;2023-06-14T10:11:32;0.70;;;0.70;;
9117;SDS011;4594;50.994;7.126;2023-06-14T10:14:00;1.07;;;1.07;;
9117;SDS011;4594;50.994;7.126;2023-06-14T10:16:32;1.65;;;0.90;;
9117;SDS011;4594;50.994;7.126;2023-06-14T10:19:19;0.80;;;0.80;;
9117;SDS011;4594;50.994;7.126;2023-06-14T10:21:51;0.65;;;0.65;;
9117;SDS011;4594;50.994;7.126;2023-06-14T10:24:42;0.80;;;0.80;;
9117;SDS011;4594;50.994;7.126;2023-06-14T10:27:11;0.95;;;0.95;;
9117;SDS011;4594;50.994;7.126;2023-06-14T10:32:20;0.93;;;0.80;;
9117;SDS011;4594;50.994;7.126;2023-06-14T10:34:59;0.80;;;0.80;;
9117;SDS011;4594;50.994;7.126;2023-06-14T10:37:30;1.48;;;1.13;;
9117;SDS011;4594;50.994;7.126;2023-06-14T10:39:56;0.80;;;0.80;;
9117;SDS011;4594;50.994;7.126;2023-06-14T10:42:23;0.82;;;0.82;;
9117;SDS011;4594;50.994;7.126;2023-06-14T10:45:01;1.13;;;1.13;;
9117;SDS011;4594;50.994;7.126;2023-06-14T10:47:28;1.17;;;1.10;;
9117;SDS011;4594;50.994;7.126;2023-06-14T10:52:40;1.65;;;0.85;;
9117;SDS011;4594;50.994;7.126;2023-06-14T10:55:15;1.02;;;1.02;;
9117;SDS011;4594;50.994;7.126;2023-06-14T11:00:18;0.85;;;0.85;;
9117;SDS011;4594;50.994;7.126;2023-06-14T11:05:57;1.13;;;0.90;;
9117;SDS011;4594;50.994;7.126;2023-06-14T11:11:29;0.80;;;0.80;;
9117;SDS011;4594;50.994;7.126;2023-06-14T11:14:00;1.33;;;1.00;;
9117;SDS011;4594;50.994;7.126;2023-06-14T11:16:27;1.08;;;0.90;;
9117;SDS011;4594;50.994;7.126;2023-06-14T11:18:53;1.13;;;1.13;;
9117;SDS011;4594;50.994;7.126;2023-06-14T11:21:20;3.65;;;1.38;;
9117;SDS011;4594;50.994;7.126;2023-06-14T11:23:52;2.40;;;0.80;;
9117;SDS011;4594;50.994;7.126;2023-06-14T11:26:30;0.93;;;0.93;;
9117;SDS011;4594;50.994;7.126;2023-06-14T11:28:58;0.63;;;0.63;;
9117;SDS011;4594;50.994;7.126;2023-06-14T11:31:26;1.10;;;1.00;;
9117;SDS011;4594;50.994;7.126;2023-06-14T11:33:53;0.77;;;0.77;;
9117;SDS011;4594;50.994;7.126;2023-06-14T11:36:21;4.87;;;1.00;;
9117;SDS011;4594;50.994;7.126;2023-06-14T11:38:48;1.00;;;1.00;;
9117;SDS011;4594;50.994;7.126;2023-06-14T11:41:14;0.93;;;0.93;;
9117;SDS011;4594;50.994;7.126;2023-06-14T11:43:40;1.47;;;0.80;;
9117;SDS011;4594;50.994;7.126;2023-06-14T11:46:11;1.13;;;1.13;;
9117;SDS011;4594;50.994;7.126;2023-06-14T11:48:42;2.50;;;0.93;;
9117;SDS011;4594;50.994;7.126;2023-06-14T11:51:08;0.80;;;0.80;;
9117;SDS011;4594;50.994;7.126;2023-06-14T11:53:34;0.80;;;0.80;;
9117;SDS011;4594;50.994;7.126;2023-06-14T11:56:00;1.30;;;1.03;;
9117;SDS011;4594;50.994;7.126;2023-06-14T11:58:27;1.00;;;1.00;;
9117;SDS011;4594;50.994;7.126;2023-06-14T12:00:55;1.90;;;0.90;;
9117;SDS011;4594;50.994;7.126;2023-06-14T12:03:24;0.80;;;0.80;;
9117;SDS011;4594;50.994;7.126;2023-06-14T12:06:01;3.57;;;1.17;;
9117;SDS011;4594;50.994;7.126;2023-06-14T12:08:35;3.70;;;1.17;;
9117;SDS011;4594;50.994;7.126;2023-06-14T12:11:06;0.87;;;0.87;;
9117;SDS011;4594;50.994;7.126;2023-06-14T12:13:38;0.90;;;0.90;;
9117;SDS011;4594;50.994;7.126;2023-06-14T12:16:06;16.30;;;1.20;;
9117;SDS011;4594;50.994;7.126;2023-06-14T12:18:34;1.00;;;1.00;;
9117;SDS011;4594;50.994;7.126;2023-06-14T12:21:03;1.43;;;1.10;;
9117;SDS011;4594;50.994;7.126;2023-06-14T12:23:47;2.33;;;1.20;;
9117;SDS011;4594;50.994;7.126;2023-06-14T12:26:15;4.60;;;1.33;;
9117;SDS011;4594;50.994;7.126;2023-06-14T12:28:44;0.93;;;0.93;;
9117;SDS011;4594;50.994;7.126;2023-06-14T12:31:11;2.90;;;1.43;;
9117;SDS011;4594;50.994;7.126;2023-06-14T12:33:40;1.00;;;1.00;;
9117;SDS011;4594;50.994;7.126;2023-06-14T12:36:07;1.00;;;1.00;;
9117;SDS011;4594;50.994;7.126;2023-06-14T12:38:35;1.10;;;1.03;;
9117;SDS011;4594;50.994;7.126;2023-06-14T12:41:02;3.50;;;1.13;;
9117;SDS011;4594;50.994;7.126;2023-06-14T12:43:28;1.00;;;1.00;;
9117;SDS011;4594;50.994;7.126;2023-06-14T12:45:54;0.90;;;0.90;;
9117;SDS011;4594;50.994;7.126;2023-06-14T12:48:20;1.10;;;1.10;;
9117;SDS011;4594;50.994;7.126;2023-06-14T12:50:46;0.90;;;0.90;;
9117;SDS011;4594;50.994;7.126;2023-06-14T12:53:12;2.17;;;1.20;;
9117;SDS011;4594;50.994;7.126;2023-06-14T12:55:38;1.23;;;1.10;;
9117;SDS011;4594;50.994;7.126;2023-06-14T12:58:04;2.90;;;1.27;;
9117;SDS011;4594;50.994;7.126;2023-06-14T13:00:30;3.37;;;1.10;;
9117;SDS011;4594;50.994;7.126;2023-06-14T13:02:56;1.10;;;1.10;;
9117;SDS011;4594;50.994;7.126;2023-06-14T13:05:22;1.20;;;1.20;;
9117;SDS011;4594;50.994;7.126;2023-06-14T13:07:49;1.23;;;1.07;;
9117;SDS011;4594;50.994;7.126;2023-06-14T13:10:15;1.30;;;1.27;;
9117;SDS011;4594;50.994;7.126;2023-06-14T13:12:42;1.30;;;1.30;;
9117;SDS011;4594;50.994;7.126;2023-06-14T13:15:08;1.20;;;1.20;;
9117;SDS011;4594;50.994;7.126;2023-06-14T13:17:35;3.83;;;1.60;;
9117;SDS011;4594;50.994;7.126;2023-06-14T13:20:07;1.43;;;1.43;;
9117;SDS011;4594;50.994;7.126;2023-06-14T13:22:34;1.20;;;1.20;;
9117;SDS011;4594;50.994;7.126;2023-06-14T13:25:00;1.20;;;1.20;;
9117;SDS011;4594;50.994;7.126;2023-06-14T13:27:29;2.50;;;1.47;;
9117;SDS011;4594;50.994;7.126;2023-06-14T13:29:54;1.30;;;1.20;;
9117;SDS011;4594;50.994;7.126;2023-06-14T13:32:21;1.90;;;1.80;;
9117;SDS011;4594;50.994;7.126;2023-06-14T13:34:47;5.80;;;1.83;;
9117;SDS011;4594;50.994;7.126;2023-06-14T13:37:13;3.17;;;1.50;;
9117;SDS011;4594;50.994;7.126;2023-06-14T13:39:39;1.40;;;1.30;;
9117;SDS011;4594;50.994;7.126;2023-06-14T13:42:05;1.50;;;1.40;;
9117;SDS011;4594;50.994;7.126;2023-06-14T13:44:31;1.70;;;1.33;;
9117;SDS011;4594;50.994;7.126;2023-06-14T13:46:57;4.10;;;1.40;;
9117;SDS011;4594;50.994;7.126;2023-06-14T13:49:23;2.53;;;1.50;;
9117;SDS011;4594;50.994;7.126;2023-06-14T13:51:49;1.90;;;1.40;;
9117;SDS011;4594;50.994;7.126;2023-06-14T13:54:14;1.23;;;1.23;;
9117;SDS011;4594;50.994;7.126;2023-06-14T13:56:45;3.60;;;1.37;;
9117;SDS011;4594;50.994;7.126;2023-06-14T13:59:11;1.50;;;1.50;;
9117;SDS011;4594;50.994;7.126;2023-06-14T14:01:37;1.47;;;1.47;;
9117;SDS011;4594;50.994;7.126;2023-06-14T14:04:03;1.40;;;1.40;;
9117;SDS011;4594;50.994;7.126;2023-06-14T14:06:29;1.70;;;1.60;;
9117;SDS011;4594;50.994;7.126;2023-06-14T14:08:56;1.60;;;1.60;;
9117;SDS011;4594;50.994;7.126;2023-06-14T14:11:22;1.50;;;1.40;;
9117;SDS011;4594;50.994;7.126;2023-06-14T14:13:48;1.40;;;1.40;;
9117;SDS011;4594;50.994;7.126;2023-06-14T14:16:14;1.60;;;1.50;;
9117;SDS011;4594;50.994;7.126;2023-06-14T14:18:40;3.03;;;1.60;;
9117;SDS011;4594;50.994;7.126;2023-06-14T14:21:06;1.70;;;1.60;;
9117;SDS011;4594;50.994;7.126;2023-06-14T14:23:32;1.37;;;1.30;;
9117;SDS011;4594;50.994;7.126;2023-06-14T14:25:58;2.50;;;1.70;;
9117;SDS011;4594;50.994;7.126;2023-06-14T14:28:25;1.37;;;1.37;;
9117;SDS011;4594;50.994;7.126;2023-06-14T14:30:51;1.50;;;1.50;;
9117;SDS011;4594;50.994;7.126;2023-06-14T14:33:18;1.40;;;1.30;;
9117;SDS011;4594;50.994;7.126;2023-06-14T14:35:44;1.50;;;1.50;;
9117;SDS011;4594;50.994;7.126;2023-06-14T14:38:11;1.80;;;1.70;;
9117;SDS011;4594;50.994;7.126;2023-06-14T14:40:38;1.70;;;1.60;;
9117;SDS011;4594;50.994;7.126;2023-06-14T14:43:05;1.63;;;1.50;;
9117;SDS011;4594;50.994;7.126;2023-06-14T14:45:31;2.70;;;1.73;;
9117;SDS011;4594;50.994;7.126;2023-06-14T14:47:57;4.50;;;1.50;;
9117;SDS011;4594;50.994;7.126;2023-06-14T14:50:24;4.03;;;1.80;;
9117;SDS011;4594;50.994;7.126;2023-06-14T14:52:50;1.63;;;1.53;;
9117;SDS011;4594;50.994;7.126;2023-06-14T14:55:16;1.40;;;1.40;;
9117;SDS011;4594;50.994;7.126;2023-06-14T14:57:41;1.63;;;1.53;;
9117;SDS011;4594;50.994;7.126;2023-06-14T15:00:08;1.53;;;1.27;;
9117;SDS011;4594;50.994;7.126;2023-06-14T15:02:34;1.70;;;1.60;;
9117;SDS011;4594;50.994;7.126;2023-06-14T15:05:00;1.50;;;1.40;;
9117;SDS011;4594;50.994;7.126;2023-06-14T15:07:27;1.70;;;1.60;;
9117;SDS011;4594;50.994;7.126;2023-06-14T15:09:54;1.77;;;1.67;;
9117;SDS011;4594;50.994;7.126;2023-06-14T15:12:20;1.87;;;1.70;;
9117;SDS011;4594;50.994;7.126;2023-06-14T15:14:49;1.50;;;1.40;;
9117;SDS011;4594;50.994;7.126;2023-06-14T15:17:16;1.63;;;1.50;;
9117;SDS011;4594;50.994;7.126;2023-06-14T15:19:44;2.60;;;1.50;;
9117;SDS011;4594;50.994;7.126;2023-06-14T15:22:13;2.17;;;1.60;;
9117;SDS011;4594;50.994;7.126;2023-06-14T15:24:40;1.40;;;1.40;;
9117;SDS011;4594;50.994;7.126;2023-06-14T15:27:07;1.67;;;1.67;;
9117;SDS011;4594;50.994;7.126;2023-06-14T15:29:33;2.80;;;1.60;;
9117;SDS011;4594;50.994;7.126;2023-06-14T15:32:00;1.43;;;1.43;;
9117;SDS011;4594;50.994;7.126;2023-06-14T15:34:26;1.70;;;1.60;;